sensor_id;sensor_type;location;lat;lon;timestamp;P1;durP1;ratioP1;P2;durP2;ratioP2
20910;SDS011;10615;42.702;23.314;2023-04-03T00:00:46;16.55;;;8.20;;
20910;SDS011;10615;42.702;23.314;2023-04-03T00:01:48;16.27;;;9.13;;
20910;SDS011;10615;42.702;23.314;2023-04-03T00:02:48;15.00;;;9.27;;
20910;SDS011;10615;42.702;23.314;2023-04-03T00:03:49;17.05;;;9.65;;
20910;SDS011;10615;42.702;23.314;2023-04-03T00:04:51;15.45;;;9.32;;
20910;SDS011;10615;42.702;23.314;2023-04-03T00:05:52;15.00;;;9.35;;
20910;SDS011;10615;42.702;23.314;2023-04-03T00:06:52;17.23;;;9.63;;
20910;SDS011;10615;42.702;23.314;2023-04-03T00:07:53;16.17;;;9.00;;
20910;SDS011;10615;42.702;23.314;2023-04-03T00:08:54;14.88;;;8.95;;
20910;SDS011;10615;42.702;23.314;2023-04-03T00:09:54;13.35;;;8.73;;
20910;SDS011;10615;42.702;23.314;2023-04-03T00:10:55;15.32;;;8.93;;
20910;SDS011;10615;42.702;23.314;2023-04-03T00:11:56;13.98;;;9.10;;
20910;SDS011;10615;42.702;23.314;2023-04-03T00:12:57;16.20;;;9.13;;
20910;SDS011;10615;42.702;23.314;2023-04-03T00:13:57;14.13;;;8.30;;
20910;SDS011;10615;42.702;23.314;2023-04-03T00:14:58;12.73;;;8.35;;
20910;SDS011;10615;42.702;23.314;2023-04-03T00:15:58;14.05;;;7.88;;
20910;SDS011;10615;42.702;23.314;2023-04-03T00:16:59;9.88;;;7.45;;
20910;SDS011;10615;42.702;23.314;2023-04-03T00:18:00;13.15;;;8.05;;
20910;SDS011;10615;42.702;23.314;2023-04-03T00:19:01;11.40;;;7.45;;
20910;SDS011;10615;42.702;23.314;2023-04-03T00:20:02;11.98;;;7.68;;
20910;SDS011;10615;42.702;23.314;2023-04-03T00:21:05;11.95;;;7.35;;
20910;SDS011;10615;42.702;23.314;2023-04-03T00:22:06;13.38;;;7.70;;
20910;SDS011;10615;42.702;23.314;2023-04-03T00:23:06;12.98;;;7.50;;
20910;SDS011;10615;42.702;23.314;2023-04-03T00:24:07;12.20;;;7.40;;
20910;SDS011;10615;42.702;23.314;2023-04-03T00:25:08;11.73;;;7.82;;
20910;SDS011;10615;42.702;23.314;2023-04-03T00:26:09;13.38;;;8.00;;
20910;SDS011;10615;42.702;23.314;2023-04-03T00:27:10;12.57;;;7.90;;
20910;SDS011;10615;42.702;23.314;2023-04-03T00:28:11;10.63;;;7.55;;
20910;SDS011;10615;42.702;23.314;2023-04-03T00:29:11;11.15;;;7.63;;
20910;SDS011;10615;42.702;23.314;2023-04-03T00:30:14;10.43;;;7.25;;
20910;SDS011;10615;42.702;23.314;2023-04-03T00:31:16;11.90;;;7.30;;
20910;SDS011;10615;42.702;23.314;2023-04-03T00:32:17;12.15;;;7.32;;
20910;SDS011;10615;42.702;23.314;2023-04-03T00:33:17;13.00;;;7.70;;
20910;SDS011;10615;42.702;23.314;2023-04-03T00:34:21;12.60;;;7.53;;
20910;SDS011;10615;42.702;23.314;2023-04-03T00:35:22;11.70;;;7.90;;
20910;SDS011;10615;42.702;23.314;2023-04-03T00:36:23;14.65;;;7.35;;
20910;SDS011;10615;42.702;23.314;2023-04-03T00:37:24;14.50;;;7.95;;
20910;SDS011;10615;42.702;23.314;2023-04-03T00:38:24;15.40;;;8.82;;
20910;SDS011;10615;42.702;23.314;2023-04-03T00:39:25;11.05;;;7.38;;
20910;SDS011;10615;42.702;23.314;2023-04-03T00:40:26;12.77;;;7.90;;
20910;SDS011;10615;42.702;23.314;2023-04-03T00:41:28;12.82;;;7.65;;
20910;SDS011;10615;42.702;23.314;2023-04-03T00:42:29;11.52;;;7.70;;
20910;SDS011;10615;42.702;23.314;2023-04-03T00:43:29;14.38;;;7.68;;
20910;SDS011;10615;42.702;23.314;2023-04-03T00:45:35;13.57;;;8.38;;
20910;SDS011;10615;42.702;23.314;2023-04-03T00:46:37;14.40;;;8.38;;
20910;SDS011;10615;42.702;23.314;2023-04-03T00:47:38;12.32;;;7.63;;
20910;SDS011;10615;42.702;23.314;2023-04-03T00:48:41;14.15;;;8.50;;
20910;SDS011;10615;42.702;23.314;2023-04-03T00:49:44;13.57;;;8.40;;
20910;SDS011;10615;42.702;23.314;2023-04-03T00:50:45;12.95;;;8.25;;
20910;SDS011;10615;42.702;23.314;2023-04-03T00:51:47;14.73;;;8.85;;
20910;SDS011;10615;42.702;23.314;2023-04-03T00:52:48;15.20;;;8.40;;
20910;SDS011;10615;42.702;23.314;2023-04-03T00:53:50;12.30;;;8.05;;
20910;SDS011;10615;42.702;23.314;2023-04-03T00:54:57;16.50;;;8.73;;
20910;SDS011;10615;42.702;23.314;2023-04-03T00:56:01;16.70;;;9.55;;
20910;SDS011;10615;42.702;23.314;2023-04-03T00:57:03;15.30;;;9.10;;
20910;SDS011;10615;42.702;23.314;2023-04-03T00:58:06;12.63;;;8.80;;
20910;SDS011;10615;42.702;23.314;2023-04-03T00:59:12;13.98;;;9.20;;
20910;SDS011;10615;42.702;23.314;2023-04-03T01:00:16;16.13;;;9.73;;
20910;SDS011;10615;42.702;23.314;2023-04-03T01:01:20;15.90;;;9.75;;
20910;SDS011;10615;42.702;23.314;2023-04-03T01:02:24;13.23;;;8.82;;
20910;SDS011;10615;42.702;23.314;2023-04-03T01:03:24;15.18;;;9.50;;
20910;SDS011;10615;42.702;23.314;2023-04-03T01:05:31;14.27;;;8.75;;
20910;SDS011;10615;42.702;23.314;2023-04-03T01:06:33;14.80;;;9.10;;
20910;SDS011;10615;42.702;23.314;2023-04-03T01:07:37;12.93;;;8.95;;
20910;SDS011;10615;42.702;23.314;2023-04-03T01:08:38;15.10;;;9.38;;
20910;SDS011;10615;42.702;23.314;2023-04-03T01:09:39;14.48;;;8.73;;
20910;SDS011;10615;42.702;23.314;2023-04-03T01:10:41;14.35;;;8.88;;
20910;SDS011;10615;42.702;23.314;2023-04-03T01:11:42;12.77;;;8.60;;
20910;SDS011;10615;42.702;23.314;2023-04-03T01:12:43;17.48;;;9.35;;
20910;SDS011;10615;42.702;23.314;2023-04-03T01:13:45;13.80;;;8.70;;
20910;SDS011;10615;42.702;23.314;2023-04-03T01:14:48;14.93;;;8.77;;
20910;SDS011;10615;42.702;23.314;2023-04-03T01:15:51;13.57;;;8.73;;
20910;SDS011;10615;42.702;23.314;2023-04-03T01:16:52;14.02;;;8.77;;
20910;SDS011;10615;42.702;23.314;2023-04-03T01:17:54;16.60;;;8.85;;
20910;SDS011;10615;42.702;23.314;2023-04-03T01:19:00;14.93;;;8.93;;
20910;SDS011;10615;42.702;23.314;2023-04-03T01:25:35;13.18;;;8.07;;
20910;SDS011;10615;42.702;23.314;2023-04-03T01:26:41;13.20;;;7.68;;
20910;SDS011;10615;42.702;23.314;2023-04-03T01:27:42;9.55;;;6.40;;
20910;SDS011;10615;42.702;23.314;2023-04-03T01:28:42;10.10;;;6.20;;
20910;SDS011;10615;42.702;23.314;2023-04-03T01:29:43;7.90;;;5.75;;
20910;SDS011;10615;42.702;23.314;2023-04-03T01:31:57;6.72;;;4.85;;
20910;SDS011;10615;42.702;23.314;2023-04-03T01:32:59;7.47;;;5.00;;
20910;SDS011;10615;42.702;23.314;2023-04-03T01:34:00;7.38;;;4.45;;
20910;SDS011;10615;42.702;23.314;2023-04-03T01:35:02;8.30;;;4.25;;
20910;SDS011;10615;42.702;23.314;2023-04-03T01:36:03;7.32;;;4.43;;
20910;SDS011;10615;42.702;23.314;2023-04-03T01:37:05;5.53;;;3.60;;
20910;SDS011;10615;42.702;23.314;2023-04-03T01:38:05;6.13;;;3.70;;
20910;SDS011;10615;42.702;23.314;2023-04-03T01:39:07;4.85;;;3.50;;
20910;SDS011;10615;42.702;23.314;2023-04-03T01:40:07;6.78;;;3.33;;
20910;SDS011;10615;42.702;23.314;2023-04-03T01:41:09;5.05;;;3.60;;
20910;SDS011;10615;42.702;23.314;2023-04-03T01:42:09;6.85;;;3.45;;
20910;SDS011;10615;42.702;23.314;2023-04-03T01:43:11;6.25;;;3.45;;
20910;SDS011;10615;42.702;23.314;2023-04-03T01:44:12;6.00;;;3.20;;
20910;SDS011;10615;42.702;23.314;2023-04-03T01:45:13;5.55;;;3.75;;
20910;SDS011;10615;42.702;23.314;2023-04-03T01:46:15;5.88;;;3.15;;
20910;SDS011;10615;42.702;23.314;2023-04-03T01:47:16;5.78;;;3.40;;
20910;SDS011;10615;42.702;23.314;2023-04-03T01:48:17;5.18;;;3.22;;
20910;SDS011;10615;42.702;23.314;2023-04-03T01:49:18;5.30;;;3.40;;
20910;SDS011;10615;42.702;23.314;2023-04-03T01:50:19;6.07;;;3.30;;
20910;SDS011;10615;42.702;23.314;2023-04-03T01:51:20;4.78;;;3.45;;
20910;SDS011;10615;42.702;23.314;2023-04-03T01:52:21;4.50;;;3.20;;
20910;SDS011;10615;42.702;23.314;2023-04-03T01:53:21;5.95;;;3.42;;
20910;SDS011;10615;42.702;23.314;2023-04-03T01:54:22;4.35;;;3.08;;
20910;SDS011;10615;42.702;23.314;2023-04-03T01:55:22;4.05;;;3.10;;
20910;SDS011;10615;42.702;23.314;2023-04-03T01:56:23;4.40;;;3.22;;
20910;SDS011;10615;42.702;23.314;2023-04-03T01:57:25;4.90;;;3.28;;
20910;SDS011;10615;42.702;23.314;2023-04-03T01:58:25;4.53;;;3.30;;
20910;SDS011;10615;42.702;23.314;2023-04-03T01:59:26;4.28;;;3.10;;
20910;SDS011;10615;42.702;23.314;2023-04-03T02:00:26;5.68;;;3.15;;
20910;SDS011;10615;42.702;23.314;2023-04-03T02:01:27;4.65;;;3.10;;
20910;SDS011;10615;42.702;23.314;2023-04-03T02:02:28;5.20;;;3.13;;
20910;SDS011;10615;42.702;23.314;2023-04-03T02:03:28;6.13;;;3.40;;
20910;SDS011;10615;42.702;23.314;2023-04-03T02:04:29;4.45;;;3.13;;
20910;SDS011;10615;42.702;23.314;2023-04-03T02:05:30;6.30;;;3.20;;
20910;SDS011;10615;42.702;23.314;2023-04-03T02:06:31;6.03;;;3.10;;
20910;SDS011;10615;42.702;23.314;2023-04-03T02:07:31;4.65;;;3.20;;
20910;SDS011;10615;42.702;23.314;2023-04-03T02:08:32;4.28;;;3.05;;
20910;SDS011;10615;42.702;23.314;2023-04-03T02:09:33;6.43;;;3.10;;
20910;SDS011;10615;42.702;23.314;2023-04-03T02:10:33;4.90;;;3.10;;
20910;SDS011;10615;42.702;23.314;2023-04-03T02:11:34;4.00;;;2.90;;
20910;SDS011;10615;42.702;23.314;2023-04-03T02:12:35;6.65;;;3.25;;
20910;SDS011;10615;42.702;23.314;2023-04-03T02:13:35;3.85;;;2.50;;
20910;SDS011;10615;42.702;23.314;2023-04-03T02:14:36;5.13;;;2.80;;
20910;SDS011;10615;42.702;23.314;2023-04-03T02:15:39;4.07;;;2.83;;
20910;SDS011;10615;42.702;23.314;2023-04-03T02:16:40;4.68;;;2.90;;
20910;SDS011;10615;42.702;23.314;2023-04-03T02:17:41;4.15;;;2.75;;
20910;SDS011;10615;42.702;23.314;2023-04-03T02:18:42;4.15;;;2.90;;
20910;SDS011;10615;42.702;23.314;2023-04-03T02:19:42;6.57;;;3.25;;
20910;SDS011;10615;42.702;23.314;2023-04-03T02:20:44;4.40;;;2.97;;
20910;SDS011;10615;42.702;23.314;2023-04-03T02:21:46;4.18;;;2.88;;
20910;SDS011;10615;42.702;23.314;2023-04-03T02:22:47;5.20;;;2.95;;
20910;SDS011;10615;42.702;23.314;2023-04-03T02:23:48;6.60;;;3.45;;
20910;SDS011;10615;42.702;23.314;2023-04-03T02:24:49;6.45;;;3.05;;
20910;SDS011;10615;42.702;23.314;2023-04-03T02:25:49;5.72;;;3.22;;
20910;SDS011;10615;42.702;23.314;2023-04-03T02:26:50;6.78;;;4.10;;
20910;SDS011;10615;42.702;23.314;2023-04-03T02:27:51;5.50;;;3.60;;
20910;SDS011;10615;42.702;23.314;2023-04-03T02:28:52;4.95;;;3.25;;
20910;SDS011;10615;42.702;23.314;2023-04-03T02:29:52;4.60;;;3.38;;
20910;SDS011;10615;42.702;23.314;2023-04-03T02:30:53;6.28;;;3.63;;
20910;SDS011;10615;42.702;23.314;2023-04-03T02:31:54;9.55;;;3.40;;
20910;SDS011;10615;42.702;23.314;2023-04-03T02:32:55;6.63;;;3.53;;
20910;SDS011;10615;42.702;23.314;2023-04-03T02:33:55;5.20;;;3.17;;
20910;SDS011;10615;42.702;23.314;2023-04-03T02:34:56;5.63;;;3.67;;
20910;SDS011;10615;42.702;23.314;2023-04-03T02:35:57;6.20;;;3.30;;
20910;SDS011;10615;42.702;23.314;2023-04-03T02:36:58;7.75;;;3.60;;
20910;SDS011;10615;42.702;23.314;2023-04-03T02:37:59;5.13;;;3.30;;
20910;SDS011;10615;42.702;23.314;2023-04-03T02:39:00;9.43;;;3.35;;
20910;SDS011;10615;42.702;23.314;2023-04-03T02:40:00;5.70;;;3.67;;
20910;SDS011;10615;42.702;23.314;2023-04-03T02:41:04;5.32;;;2.83;;
20910;SDS011;10615;42.702;23.314;2023-04-03T02:42:07;5.47;;;3.22;;
20910;SDS011;10615;42.702;23.314;2023-04-03T02:43:07;6.43;;;3.60;;
20910;SDS011;10615;42.702;23.314;2023-04-03T02:44:08;6.07;;;3.33;;
20910;SDS011;10615;42.702;23.314;2023-04-03T02:45:10;6.68;;;3.50;;
20910;SDS011;10615;42.702;23.314;2023-04-03T02:46:10;4.05;;;3.08;;
20910;SDS011;10615;42.702;23.314;2023-04-03T02:47:11;5.45;;;3.22;;
20910;SDS011;10615;42.702;23.314;2023-04-03T02:48:12;5.25;;;3.17;;
20910;SDS011;10615;42.702;23.314;2023-04-03T02:49:12;5.50;;;3.42;;
20910;SDS011;10615;42.702;23.314;2023-04-03T02:50:13;4.97;;;3.13;;
20910;SDS011;10615;42.702;23.314;2023-04-03T02:51:14;4.57;;;3.20;;
20910;SDS011;10615;42.702;23.314;2023-04-03T02:52:15;4.57;;;3.10;;
20910;SDS011;10615;42.702;23.314;2023-04-03T02:53:16;7.82;;;3.90;;
20910;SDS011;10615;42.702;23.314;2023-04-03T02:54:17;4.68;;;3.20;;
20910;SDS011;10615;42.702;23.314;2023-04-03T02:55:17;5.57;;;3.05;;
20910;SDS011;10615;42.702;23.314;2023-04-03T02:56:18;5.55;;;3.30;;
20910;SDS011;10615;42.702;23.314;2023-04-03T02:57:20;5.15;;;3.40;;
20910;SDS011;10615;42.702;23.314;2023-04-03T02:58:20;6.43;;;3.58;;
20910;SDS011;10615;42.702;23.314;2023-04-03T02:59:21;12.05;;;3.78;;
20910;SDS011;10615;42.702;23.314;2023-04-03T03:00:22;5.18;;;3.72;;
20910;SDS011;10615;42.702;23.314;2023-04-03T03:01:23;6.38;;;3.45;;
20910;SDS011;10615;42.702;23.314;2023-04-03T03:02:24;7.30;;;3.67;;
20910;SDS011;10615;42.702;23.314;2023-04-03T03:03:24;10.98;;;3.90;;
20910;SDS011;10615;42.702;23.314;2023-04-03T03:04:25;8.00;;;3.70;;
20910;SDS011;10615;42.702;23.314;2023-04-03T03:05:26;8.77;;;3.67;;
20910;SDS011;10615;42.702;23.314;2023-04-03T03:06:27;7.03;;;3.95;;
20910;SDS011;10615;42.702;23.314;2023-04-03T03:07:28;7.43;;;4.00;;
20910;SDS011;10615;42.702;23.314;2023-04-03T03:08:28;6.70;;;4.35;;
20910;SDS011;10615;42.702;23.314;2023-04-03T03:09:29;8.07;;;4.63;;
20910;SDS011;10615;42.702;23.314;2023-04-03T03:10:30;5.97;;;3.92;;
20910;SDS011;10615;42.702;23.314;2023-04-03T03:11:31;8.07;;;4.03;;
20910;SDS011;10615;42.702;23.314;2023-04-03T03:12:31;7.72;;;4.20;;
20910;SDS011;10615;42.702;23.314;2023-04-03T03:13:32;5.53;;;3.80;;
20910;SDS011;10615;42.702;23.314;2023-04-03T03:14:33;7.18;;;3.97;;
20910;SDS011;10615;42.702;23.314;2023-04-03T03:15:34;6.43;;;4.00;;
20910;SDS011;10615;42.702;23.314;2023-04-03T03:16:35;6.22;;;4.20;;
20910;SDS011;10615;42.702;23.314;2023-04-03T03:17:36;6.25;;;4.32;;
20910;SDS011;10615;42.702;23.314;2023-04-03T03:18:37;6.85;;;4.13;;
20910;SDS011;10615;42.702;23.314;2023-04-03T03:19:38;5.25;;;4.15;;
20910;SDS011;10615;42.702;23.314;2023-04-03T03:20:38;7.70;;;3.92;;
20910;SDS011;10615;42.702;23.314;2023-04-03T03:21:39;7.03;;;4.70;;
20910;SDS011;10615;42.702;23.314;2023-04-03T03:22:40;7.90;;;4.13;;
20910;SDS011;10615;42.702;23.314;2023-04-03T03:23:40;7.55;;;4.47;;
20910;SDS011;10615;42.702;23.314;2023-04-03T03:24:41;6.97;;;4.38;;
20910;SDS011;10615;42.702;23.314;2023-04-03T03:25:42;7.07;;;4.57;;
20910;SDS011;10615;42.702;23.314;2023-04-03T03:26:42;9.57;;;5.00;;
20910;SDS011;10615;42.702;23.314;2023-04-03T03:27:43;8.25;;;4.70;;
20910;SDS011;10615;42.702;23.314;2023-04-03T03:28:43;7.68;;;4.80;;
20910;SDS011;10615;42.702;23.314;2023-04-03T03:29:44;10.55;;;5.20;;
20910;SDS011;10615;42.702;23.314;2023-04-03T03:30:45;9.43;;;4.93;;
20910;SDS011;10615;42.702;23.314;2023-04-03T03:31:46;9.18;;;4.82;;
20910;SDS011;10615;42.702;23.314;2023-04-03T03:32:46;10.82;;;4.63;;
20910;SDS011;10615;42.702;23.314;2023-04-03T03:33:47;7.15;;;4.63;;
20910;SDS011;10615;42.702;23.314;2023-04-03T03:34:47;7.50;;;4.78;;
20910;SDS011;10615;42.702;23.314;2023-04-03T03:35:48;10.68;;;4.80;;
20910;SDS011;10615;42.702;23.314;2023-04-03T03:36:49;11.32;;;5.43;;
20910;SDS011;10615;42.702;23.314;2023-04-03T03:48:25;13.60;;;6.72;;
20910;SDS011;10615;42.702;23.314;2023-04-03T03:49:25;11.98;;;6.65;;
20910;SDS011;10615;42.702;23.314;2023-04-03T03:50:26;10.85;;;6.10;;
20910;SDS011;10615;42.702;23.314;2023-04-03T03:51:27;13.85;;;7.22;;
20910;SDS011;10615;42.702;23.314;2023-04-03T03:52:27;11.13;;;6.65;;
20910;SDS011;10615;42.702;23.314;2023-04-03T03:53:29;11.82;;;6.82;;
20910;SDS011;10615;42.702;23.314;2023-04-03T03:54:30;16.40;;;6.60;;
20910;SDS011;10615;42.702;23.314;2023-04-03T03:55:31;14.93;;;7.05;;
20910;SDS011;10615;42.702;23.314;2023-04-03T03:56:31;13.75;;;6.78;;
20910;SDS011;10615;42.702;23.314;2023-04-03T03:57:32;15.10;;;7.68;;
20910;SDS011;10615;42.702;23.314;2023-04-03T03:58:33;14.93;;;7.10;;
20910;SDS011;10615;42.702;23.314;2023-04-03T03:59:34;14.43;;;6.40;;
20910;SDS011;10615;42.702;23.314;2023-04-03T04:00:35;12.32;;;7.30;;
20910;SDS011;10615;42.702;23.314;2023-04-03T04:01:35;11.85;;;6.53;;
20910;SDS011;10615;42.702;23.314;2023-04-03T04:02:36;18.02;;;7.15;;
20910;SDS011;10615;42.702;23.314;2023-04-03T04:03:37;12.90;;;7.85;;
20910;SDS011;10615;42.702;23.314;2023-04-03T04:04:37;13.68;;;7.53;;
20910;SDS011;10615;42.702;23.314;2023-04-03T04:05:38;15.00;;;7.32;;
20910;SDS011;10615;42.702;23.314;2023-04-03T04:06:39;15.60;;;6.95;;
20910;SDS011;10615;42.702;23.314;2023-04-03T04:07:39;12.65;;;7.05;;
20910;SDS011;10615;42.702;23.314;2023-04-03T04:08:40;12.88;;;7.53;;
20910;SDS011;10615;42.702;23.314;2023-04-03T04:09:41;15.23;;;7.45;;
20910;SDS011;10615;42.702;23.314;2023-04-03T04:10:41;12.25;;;7.50;;
20910;SDS011;10615;42.702;23.314;2023-04-03T04:11:42;16.60;;;7.78;;
20910;SDS011;10615;42.702;23.314;2023-04-03T04:12:43;12.45;;;7.72;;
20910;SDS011;10615;42.702;23.314;2023-04-03T04:13:43;16.98;;;7.55;;
20910;SDS011;10615;42.702;23.314;2023-04-03T04:14:44;14.23;;;7.45;;
20910;SDS011;10615;42.702;23.314;2023-04-03T04:15:46;13.50;;;6.97;;
20910;SDS011;10615;42.702;23.314;2023-04-03T04:16:47;14.45;;;7.32;;
20910;SDS011;10615;42.702;23.314;2023-04-03T04:17:48;13.45;;;8.18;;
20910;SDS011;10615;42.702;23.314;2023-04-03T04:18:49;14.88;;;7.32;;
20910;SDS011;10615;42.702;23.314;2023-04-03T04:19:49;12.95;;;7.35;;
20910;SDS011;10615;42.702;23.314;2023-04-03T04:20:50;11.63;;;7.30;;
20910;SDS011;10615;42.702;23.314;2023-04-03T04:21:51;12.73;;;7.10;;
20910;SDS011;10615;42.702;23.314;2023-04-03T04:22:51;12.88;;;7.20;;
20910;SDS011;10615;42.702;23.314;2023-04-03T04:23:52;11.88;;;6.78;;
20910;SDS011;10615;42.702;23.314;2023-04-03T04:24:53;13.88;;;7.65;;
20910;SDS011;10615;42.702;23.314;2023-04-03T04:25:53;12.93;;;7.55;;
20910;SDS011;10615;42.702;23.314;2023-04-03T04:26:54;18.63;;;8.98;;
20910;SDS011;10615;42.702;23.314;2023-04-03T04:27:55;20.42;;;12.68;;
20910;SDS011;10615;42.702;23.314;2023-04-03T04:28:55;15.55;;;9.55;;
20910;SDS011;10615;42.702;23.314;2023-04-03T04:29:56;21.55;;;10.00;;
20910;SDS011;10615;42.702;23.314;2023-04-03T04:30:56;14.65;;;8.75;;
20910;SDS011;10615;42.702;23.314;2023-04-03T04:31:57;19.98;;;9.05;;
20910;SDS011;10615;42.702;23.314;2023-04-03T04:32:58;16.67;;;8.18;;
20910;SDS011;10615;42.702;23.314;2023-04-03T04:33:58;21.20;;;9.95;;
20910;SDS011;10615;42.702;23.314;2023-04-03T04:34:59;20.63;;;10.55;;
20910;SDS011;10615;42.702;23.314;2023-04-03T04:36:00;18.67;;;10.43;;
20910;SDS011;10615;42.702;23.314;2023-04-03T04:37:00;19.52;;;10.20;;
20910;SDS011;10615;42.702;23.314;2023-04-03T04:38:01;19.73;;;10.13;;
20910;SDS011;10615;42.702;23.314;2023-04-03T04:39:02;20.33;;;10.38;;
20910;SDS011;10615;42.702;23.314;2023-04-03T04:40:03;15.05;;;9.60;;
20910;SDS011;10615;42.702;23.314;2023-04-03T04:41:04;22.75;;;10.60;;
20910;SDS011;10615;42.702;23.314;2023-04-03T04:42:05;24.23;;;9.73;;
20910;SDS011;10615;42.702;23.314;2023-04-03T04:43:07;23.08;;;10.85;;
20910;SDS011;10615;42.702;23.314;2023-04-03T04:44:07;18.75;;;9.35;;
20910;SDS011;10615;42.702;23.314;2023-04-03T04:45:08;17.45;;;9.55;;
20910;SDS011;10615;42.702;23.314;2023-04-03T04:46:10;16.77;;;9.35;;
20910;SDS011;10615;42.702;23.314;2023-04-03T04:47:14;20.73;;;8.93;;
20910;SDS011;10615;42.702;23.314;2023-04-03T04:48:14;15.25;;;8.75;;
20910;SDS011;10615;42.702;23.314;2023-04-03T04:49:16;14.95;;;9.10;;
20910;SDS011;10615;42.702;23.314;2023-04-03T04:50:16;18.80;;;8.75;;
20910;SDS011;10615;42.702;23.314;2023-04-03T04:51:17;20.48;;;8.73;;
20910;SDS011;10615;42.702;23.314;2023-04-03T04:52:18;14.15;;;8.15;;
20910;SDS011;10615;42.702;23.314;2023-04-03T04:53:18;17.60;;;8.70;;
20910;SDS011;10615;42.702;23.314;2023-04-03T04:54:19;17.17;;;8.50;;
20910;SDS011;10615;42.702;23.314;2023-04-03T04:55:20;14.93;;;8.40;;
20910;SDS011;10615;42.702;23.314;2023-04-03T04:56:20;17.00;;;8.70;;
20910;SDS011;10615;42.702;23.314;2023-04-03T04:57:21;15.48;;;8.43;;
20910;SDS011;10615;42.702;23.314;2023-04-03T04:58:22;18.63;;;8.93;;
20910;SDS011;10615;42.702;23.314;2023-04-03T04:59:23;18.88;;;9.18;;
20910;SDS011;10615;42.702;23.314;2023-04-03T05:00:24;20.90;;;9.60;;
20910;SDS011;10615;42.702;23.314;2023-04-03T05:01:25;15.07;;;8.75;;
20910;SDS011;10615;42.702;23.314;2023-04-03T05:02:25;18.10;;;9.90;;
20910;SDS011;10615;42.702;23.314;2023-04-03T05:03:26;15.60;;;9.30;;
20910;SDS011;10615;42.702;23.314;2023-04-03T05:04:27;16.85;;;9.55;;
20910;SDS011;10615;42.702;23.314;2023-04-03T05:05:27;14.98;;;8.00;;
20910;SDS011;10615;42.702;23.314;2023-04-03T05:06:28;16.52;;;9.30;;
20910;SDS011;10615;42.702;23.314;2023-04-03T05:07:31;19.33;;;8.70;;
20910;SDS011;10615;42.702;23.314;2023-04-03T05:08:32;20.58;;;8.90;;
20910;SDS011;10615;42.702;23.314;2023-04-03T05:09:33;23.20;;;9.75;;
20910;SDS011;10615;42.702;23.314;2023-04-03T05:10:33;20.77;;;9.68;;
20910;SDS011;10615;42.702;23.314;2023-04-03T05:11:34;18.40;;;9.45;;
20910;SDS011;10615;42.702;23.314;2023-04-03T05:12:35;19.58;;;9.77;;
20910;SDS011;10615;42.702;23.314;2023-04-03T05:13:36;22.65;;;9.55;;
20910;SDS011;10615;42.702;23.314;2023-04-03T05:14:36;13.80;;;9.43;;
20910;SDS011;10615;42.702;23.314;2023-04-03T05:15:37;22.83;;;9.90;;
20910;SDS011;10615;42.702;23.314;2023-04-03T05:16:38;20.23;;;9.95;;
20910;SDS011;10615;42.702;23.314;2023-04-03T05:17:39;18.38;;;9.73;;
20910;SDS011;10615;42.702;23.314;2023-04-03T05:18:39;16.77;;;9.88;;
20910;SDS011;10615;42.702;23.314;2023-04-03T05:19:40;16.95;;;10.43;;
20910;SDS011;10615;42.702;23.314;2023-04-03T05:20:41;23.00;;;10.50;;
20910;SDS011;10615;42.702;23.314;2023-04-03T05:21:43;17.52;;;9.23;;
20910;SDS011;10615;42.702;23.314;2023-04-03T05:22:43;23.27;;;10.25;;
20910;SDS011;10615;42.702;23.314;2023-04-03T05:23:44;23.30;;;10.27;;
20910;SDS011;10615;42.702;23.314;2023-04-03T05:24:45;17.90;;;10.10;;
20910;SDS011;10615;42.702;23.314;2023-04-03T05:25:46;19.63;;;10.30;;
20910;SDS011;10615;42.702;23.314;2023-04-03T05:26:48;22.48;;;11.13;;
20910;SDS011;10615;42.702;23.314;2023-04-03T05:27:49;29.13;;;11.32;;
20910;SDS011;10615;42.702;23.314;2023-04-03T05:28:50;22.30;;;11.93;;
20910;SDS011;10615;42.702;23.314;2023-04-03T05:29:52;20.70;;;11.27;;
20910;SDS011;10615;42.702;23.314;2023-04-03T05:30:56;26.42;;;11.65;;
20910;SDS011;10615;42.702;23.314;2023-04-03T05:31:57;34.15;;;15.13;;
20910;SDS011;10615;42.702;23.314;2023-04-03T05:32:58;30.80;;;14.25;;
20910;SDS011;10615;42.702;23.314;2023-04-03T05:33:59;27.98;;;16.52;;
20910;SDS011;10615;42.702;23.314;2023-04-03T05:35:00;32.28;;;17.52;;
20910;SDS011;10615;42.702;23.314;2023-04-03T05:36:02;39.28;;;22.13;;
20910;SDS011;10615;42.702;23.314;2023-04-03T05:37:03;46.45;;;26.08;;
20910;SDS011;10615;42.702;23.314;2023-04-03T05:38:05;37.70;;;22.30;;
20910;SDS011;10615;42.702;23.314;2023-04-03T05:39:05;38.92;;;22.60;;
20910;SDS011;10615;42.702;23.314;2023-04-03T05:40:06;47.22;;;27.15;;
20910;SDS011;10615;42.702;23.314;2023-04-03T05:41:08;46.38;;;23.92;;
20910;SDS011;10615;42.702;23.314;2023-04-03T05:42:08;60.50;;;34.63;;
20910;SDS011;10615;42.702;23.314;2023-04-03T05:43:11;52.80;;;32.45;;
20910;SDS011;10615;42.702;23.314;2023-04-03T05:44:12;58.08;;;34.35;;
20910;SDS011;10615;42.702;23.314;2023-04-03T05:45:12;41.38;;;21.17;;
20910;SDS011;10615;42.702;23.314;2023-04-03T05:46:14;43.10;;;23.90;;
20910;SDS011;10615;42.702;23.314;2023-04-03T05:47:17;37.47;;;23.70;;
20910;SDS011;10615;42.702;23.314;2023-04-03T05:48:18;33.20;;;18.45;;
20910;SDS011;10615;42.702;23.314;2023-04-03T05:49:18;28.35;;;16.75;;
20910;SDS011;10615;42.702;23.314;2023-04-03T05:50:19;36.05;;;17.75;;
20910;SDS011;10615;42.702;23.314;2023-04-03T05:51:25;25.08;;;13.60;;
20910;SDS011;10615;42.702;23.314;2023-04-03T05:52:31;30.05;;;14.38;;
20910;SDS011;10615;42.702;23.314;2023-04-03T05:53:36;22.40;;;14.30;;
20910;SDS011;10615;42.702;23.314;2023-04-03T05:54:37;28.35;;;14.50;;
20910;SDS011;10615;42.702;23.314;2023-04-03T05:55:37;31.17;;;15.45;;
20910;SDS011;10615;42.702;23.314;2023-04-03T05:56:38;30.17;;;17.55;;
20910;SDS011;10615;42.702;23.314;2023-04-03T05:57:39;24.33;;;16.30;;
20910;SDS011;10615;42.702;23.314;2023-04-03T05:58:39;32.67;;;17.67;;
20910;SDS011;10615;42.702;23.314;2023-04-03T05:59:40;33.28;;;22.30;;
20910;SDS011;10615;42.702;23.314;2023-04-03T06:00:41;48.05;;;30.95;;
20910;SDS011;10615;42.702;23.314;2023-04-03T06:01:41;45.25;;;29.77;;
20910;SDS011;10615;42.702;23.314;2023-04-03T06:02:42;35.75;;;20.38;;
20910;SDS011;10615;42.702;23.314;2023-04-03T06:03:43;36.85;;;21.40;;
20910;SDS011;10615;42.702;23.314;2023-04-03T06:04:44;40.53;;;25.73;;
20910;SDS011;10615;42.702;23.314;2023-04-03T06:05:44;38.40;;;26.90;;
20910;SDS011;10615;42.702;23.314;2023-04-03T06:06:47;44.47;;;32.15;;
20910;SDS011;10615;42.702;23.314;2023-04-03T06:07:56;42.55;;;28.23;;
20910;SDS011;10615;42.702;23.314;2023-04-03T06:08:57;27.70;;;19.67;;
20910;SDS011;10615;42.702;23.314;2023-04-03T06:09:57;26.00;;;14.25;;
20910;SDS011;10615;42.702;23.314;2023-04-03T06:10:58;23.25;;;14.15;;
20910;SDS011;10615;42.702;23.314;2023-04-03T06:11:59;23.13;;;14.38;;
20910;SDS011;10615;42.702;23.314;2023-04-03T06:13:00;25.38;;;15.20;;
20910;SDS011;10615;42.702;23.314;2023-04-03T06:14:02;27.52;;;15.57;;
20910;SDS011;10615;42.702;23.314;2023-04-03T06:15:03;28.27;;;13.85;;
20910;SDS011;10615;42.702;23.314;2023-04-03T06:16:04;25.77;;;14.35;;
20910;SDS011;10615;42.702;23.314;2023-04-03T06:17:05;27.13;;;14.07;;
20910;SDS011;10615;42.702;23.314;2023-04-03T06:18:06;21.65;;;13.32;;